Time;durP1;ratioP1;P1;durP2;ratioP2;P2;SDS_P1;SDS_P2;PMS_P1;PMS_P2;Temp;Humidity;BMP_temperature;BMP_pressure;BME280_temperature;BME280_humidity;BME280_pressure;Samples;Min_cycle;Max_cycle;Signal;HPM_P1;HPM_P2
2021/05/17 00:01:12;;;;;;;8.60;2.30;;;15.70;99.90;;;;;;5067468;28;20186;-70
2021/05/17 00:03:47;;;;;;;6.23;1.90;;;15.60;99.90;;;;;;5081375;28;20182;-70
2021/05/17 00:06:13;;;;;;;10.40;2.10;;;15.60;99.90;;;;;;5074697;28;20224;-70
2021/05/17 00:08:58;;;;;;;6.87;2.27;;;15.70;99.90;;;;;;5067522;28;20193;-70
2021/05/17 00:11:25;;;;;;;7.10;2.03;;;15.70;99.90;;;;;;5074489;28;20213;-70
2021/05/17 00:13:54;;;;;;;5.20;1.97;;;15.60;99.90;;;;;;5082881;28;20202;-70
2021/05/17 00:16:21;;;;;;;6.13;2.00;;;15.60;99.90;;;;;;5065829;28;20205;-72
2021/05/17 00:18:48;;;;;;;5.17;1.63;;;15.50;99.90;;;;;;5086353;28;20194;-70
2021/05/17 00:21:14;;;;;;;6.40;2.00;;;15.40;99.90;;;;;;5081508;28;20186;-70
2021/05/17 00:23:41;;;;;;;6.17;2.20;;;15.50;99.90;;;;;;5082849;28;20193;-69
2021/05/17 00:26:08;;;;;;;4.70;2.20;;;15.50;99.90;;;;;;5065407;28;20289;-70
2021/05/17 00:28:34;;;;;;;4.80;1.90;;;15.50;99.90;;;;;;5083458;28;20535;-72
2021/05/17 00:31:01;;;;;;;5.50;1.97;;;15.50;99.90;;;;;;5081977;28;20203;-72
2021/05/17 00:33:28;;;;;;;11.13;2.33;;;15.60;99.90;;;;;;5085814;28;20194;-72
2021/05/17 00:35:56;;;;;;;6.73;2.50;;;15.70;99.90;;;;;;5080063;28;20289;-70
2021/05/17 00:38:22;;;;;;;6.07;2.43;;;15.60;99.90;;;;;;5084913;28;20696;-71
2021/05/17 00:40:49;;;;;;;5.20;1.90;;;15.60;99.90;;;;;;5078908;28;20285;-71
2021/05/17 00:43:25;;;;;;;8.70;1.97;;;15.60;99.90;;;;;;5080246;28;20218;-70
2021/05/17 00:45:53;;;;;;;6.43;2.30;;;15.60;99.90;;;;;;5078916;28;20190;-71
2021/05/17 00:48:19;;;;;;;7.07;1.90;;;15.60;99.90;;;;;;5085317;28;21010;-70
2021/05/17 00:50:46;;;;;;;6.97;2.03;;;15.50;99.90;;;;;;5064886;28;20238;-71
2021/05/17 00:53:14;;;;;;;11.83;2.67;;;15.50;99.90;;;;;;5084958;28;21012;-71
2021/05/17 00:55:40;;;;;;;8.50;2.03;;;15.40;99.90;;;;;;5084528;28;20200;-71
2021/05/17 00:58:07;;;;;;;8.83;2.20;;;15.30;99.90;;;;;;5084200;28;20364;-71
2021/05/17 01:00:33;;;;;;;7.27;2.33;;;15.20;99.90;;;;;;5084981;28;20247;-71
2021/05/17 01:03:00;;;;;;;6.87;2.23;;;15.20;99.90;;;;;;5070372;28;20182;-71
2021/05/17 01:05:26;;;;;;;7.10;2.20;;;15.00;99.90;;;;;;5082154;28;20282;-71
2021/05/17 01:07:53;;;;;;;5.67;2.10;;;14.90;99.90;;;;;;5064469;28;20277;-71
2021/05/17 01:10:22;;;;;;;7.57;2.17;;;14.90;99.90;;;;;;5099474;28;20190;-71
2021/05/17 01:12:50;;;;;;;5.83;1.93;;;14.80;99.90;;;;;;5076331;28;20229;-71
2021/05/17 01:15:19;;;;;;;7.13;2.43;;;14.80;99.90;;;;;;5081483;28;20247;-71
2021/05/17 01:17:45;;;;;;;4.50;2.20;;;14.80;99.90;;;;;;5083972;28;20201;-71
2021/05/17 01:20:16;;;;;;;6.90;2.27;;;14.90;99.90;;;;;;5084197;28;20187;-71
2021/05/17 01:25:25;;;;;;;6.17;2.03;;;14.90;99.90;;;;;;5087206;28;20861;-70
2021/05/17 01:27:52;;;;;;;6.03;2.27;;;14.90;99.90;;;;;;5083387;28;20278;-71
2021/05/17 01:30:22;;;;;;;8.30;2.00;;;14.80;99.90;;;;;;5083189;28;20209;-70
2021/05/17 01:32:53;;;;;;;5.63;2.07;;;14.80;99.90;;;;;;5066177;28;20230;-71
2021/05/17 01:35:20;;;;;;;5.40;2.37;;;14.80;99.90;;;;;;5069998;28;20186;-71
2021/05/17 01:37:48;;;;;;;5.60;2.20;;;14.70;99.90;;;;;;5082148;28;20251;-71
2021/05/17 01:40:19;;;;;;;6.40;2.43;;;14.60;99.90;;;;;;5089717;28;20265;-70
2021/05/17 01:42:47;;;;;;;4.30;1.93;;;14.50;99.90;;;;;;5084977;28;20222;-70
2021/05/17 01:45:15;;;;;;;7.33;2.00;;;14.40;99.90;;;;;;5064844;28;20202;-71
2021/05/17 01:47:43;;;;;;;6.37;2.00;;;14.30;99.90;;;;;;5083554;28;20213;-70
2021/05/17 01:50:14;;;;;;;4.97;2.00;;;14.40;99.90;;;;;;5086285;28;20206;-70
2021/05/17 01:52:41;;;;;;;6.77;2.30;;;14.50;99.90;;;;;;5085539;28;20709;-71
2021/05/17 01:55:13;;;;;;;6.63;2.13;;;14.60;99.90;;;;;;5087334;28;20220;-71
2021/05/17 01:57:40;;;;;;;9.57;2.30;;;14.70;99.90;;;;;;5087928;28;20188;-70
2021/05/17 02:00:10;;;;;;;5.53;2.10;;;14.90;99.90;;;;;;5085022;28;20174;-70
2021/05/17 02:02:37;;;;;;;6.60;2.77;;;14.90;99.90;;;;;;5087358;28;20771;-71
2021/05/17 02:05:06;;;;;;;3.90;2.07;;;14.70;99.90;;;;;;5088415;28;20851;-71
2021/05/17 02:07:33;;;;;;;7.03;2.20;;;14.60;99.90;;;;;;5064257;28;20255;-70
2021/05/17 02:10:04;;;;;;;9.93;2.63;;;14.60;99.90;;;;;;5088361;28;20186;-71
2021/05/17 02:12:34;;;;;;;7.10;2.37;;;14.40;99.90;;;;;;5088706;28;20206;-71
2021/05/17 02:15:03;;;;;;;5.17;2.13;;;14.40;99.90;;;;;;5066039;28;20194;-71
2021/05/17 02:17:29;;;;;;;5.93;2.27;;;14.40;99.90;;;;;;5084760;28;20624;-71
2021/05/17 02:19:58;;;;;;;5.63;2.53;;;14.40;99.90;;;;;;5084717;28;20179;-71
2021/05/17 02:22:24;;;;;;;6.77;2.00;;;14.40;99.90;;;;;;5089138;28;20194;-71
2021/05/17 02:24:51;;;;;;;6.63;2.20;;;14.40;99.90;;;;;;5091848;28;20189;-71
2021/05/17 02:27:18;;;;;;;8.23;2.13;;;14.40;99.90;;;;;;5082077;28;20221;-71
2021/05/17 02:29:45;;;;;;;5.87;1.97;;;14.50;99.90;;;;;;5086818;28;20213;-71
2021/05/17 02:32:24;;;;;;;5.60;1.80;;;14.40;99.90;;;;;;5070097;28;20218;-71
2021/05/17 02:34:51;;;;;;;6.73;2.13;;;14.30;99.90;;;;;;5070868;28;20517;-69
2021/05/17 02:37:17;;;;;;;7.60;1.73;;;14.30;99.90;;;;;;5087669;28;20273;-69
2021/05/17 02:39:44;;;;;;;5.57;2.13;;;14.20;99.90;;;;;;5084648;28;20187;-68
2021/05/17 02:42:17;;;;;;;8.23;1.90;;;14.20;99.90;;;;;;5085673;28;20193;-69
2021/05/17 02:44:43;;;;;;;4.93;1.80;;;14.10;99.90;;;;;;5083141;28;20213;-69
2021/05/17 02:47:10;;;;;;;6.20;1.73;;;14.10;99.90;;;;;;5081743;28;20194;-69
2021/05/17 02:49:37;;;;;;;6.10;2.03;;;14.10;99.90;;;;;;5088387;28;20212;-69
2021/05/17 02:52:03;;;;;;;5.60;2.00;;;14.20;99.90;;;;;;5085907;28;20210;-69
2021/05/17 02:54:33;;;;;;;5.23;1.60;;;14.20;99.90;;;;;;5089369;28;20567;-69
2021/05/17 02:57:07;;;;;;;6.43;1.83;;;14.10;99.90;;;;;;5086143;28;20269;-69
2021/05/17 03:00:07;;;;;;;5.33;1.70;;;14.10;99.90;;;;;;5071315;28;20190;-68
2021/05/17 03:02:45;;;;;;;8.07;2.00;;;14.10;99.90;;;;;;5102352;28;20205;-68
2021/05/17 03:05:14;;;;;;;7.63;1.73;;;14.10;99.90;;;;;;5088927;28;20251;-69
2021/05/17 03:07:46;;;;;;;6.77;2.13;;;14.00;99.90;;;;;;5086384;28;20234;-69
2021/05/17 03:10:13;;;;;;;6.33;2.00;;;14.00;99.90;;;;;;5087919;28;20596;-69
2021/05/17 03:12:42;;;;;;;4.27;1.70;;;14.00;99.90;;;;;;5086005;28;20230;-68
2021/05/17 03:15:10;;;;;;;5.40;1.90;;;14.10;99.90;;;;;;5083513;28;20576;-69
2021/05/17 03:17:38;;;;;;;6.70;1.90;;;14.10;99.90;;;;;;5078854;28;20187;-68
2021/05/17 03:20:06;;;;;;;6.33;2.00;;;14.10;99.90;;;;;;5085866;28;20234;-69
2021/05/17 03:22:34;;;;;;;6.63;2.00;;;14.10;99.90;;;;;;5068103;28;20243;-69
2021/05/17 03:25:06;;;;;;;5.70;1.77;;;14.10;99.90;;;;;;5105775;27;20188;-69
2021/05/17 03:27:33;;;;;;;5.77;2.00;;;14.20;99.90;;;;;;5085028;28;20780;-69
2021/05/17 03:29:59;;;;;;;7.43;2.00;;;14.20;99.90;;;;;;5088035;28;20264;-68
2021/05/17 03:32:26;;;;;;;7.93;1.87;;;14.30;99.90;;;;;;5081930;28;20210;-70
2021/05/17 03:34:54;;;;;;;5.43;1.77;;;14.30;99.90;;;;;;5087673;28;20194;-71
2021/05/17 03:37:20;;;;;;;8.47;2.47;;;14.40;99.90;;;;;;5085165;28;20194;-70
2021/05/17 03:39:49;;;;;;;6.43;2.00;;;14.50;99.90;;;;;;5087676;28;20325;-70
2021/05/17 03:42:16;;;;;;;6.00;2.03;;;14.50;99.90;;;;;;5084890;28;20285;-70
2021/05/17 03:44:43;;;;;;;6.23;1.90;;;14.70;99.90;;;;;;5084654;28;20198;-71
2021/05/17 03:47:09;;;;;;;8.43;1.90;;;14.80;99.90;;;;;;5080088;28;20198;-71
2021/05/17 03:49:35;;;;;;;6.63;1.70;;;14.90;99.90;;;;;;5081877;28;20198;-71
2021/05/17 03:52:02;;;;;;;5.17;1.80;;;14.90;99.90;;;;;;5069528;28;20206;-71
2021/05/17 03:54:28;;;;;;;8.17;1.60;;;14.80;99.90;;;;;;5085170;28;20197;-71
2021/05/17 03:56:54;;;;;;;8.00;1.80;;;14.80;99.90;;;;;;5081329;28;20194;-70
2021/05/17 03:59:21;;;;;;;12.70;2.33;;;14.80;99.90;;;;;;5083105;28;20236;-71
2021/05/17 04:01:51;;;;;;;8.27;1.93;;;14.80;99.90;;;;;;5090134;28;20213;-70
2021/05/17 04:04:20;;;;;;;10.20;2.20;;;14.80;99.90;;;;;;5086249;28;20221;-71
2021/05/17 04:06:51;;;;;;;8.47;1.60;;;14.80;99.90;;;;;;5084399;28;20255;-71
2021/05/17 04:14:47;;;;;;;7.07;2.10;;;14.90;99.90;;;;;;5087025;28;20296;-71
2021/05/17 04:17:14;;;;;;;5.07;1.50;;;15.00;99.90;;;;;;5079374;28;20206;-71
2021/05/17 04:19:40;;;;;;;6.13;1.80;;;15.10;99.90;;;;;;5078670;28;20285;-71
2021/05/17 04:22:06;;;;;;;6.77;1.80;;;15.10;99.90;;;;;;5082235;28;20194;-70
2021/05/17 04:24:32;;;;;;;4.33;1.70;;;15.20;99.90;;;;;;5084463;28;20190;-71
2021/05/17 04:27:00;;;;;;;6.90;1.80;;;15.30;99.90;;;;;;5088064;28;20186;-71
2021/05/17 04:29:27;;;;;;;6.20;1.70;;;15.30;99.90;;;;;;5087691;28;20265;-71
2021/05/17 04:31:53;;;;;;;7.43;2.07;;;15.50;99.90;;;;;;5085889;28;20256;-71
2021/05/17 04:34:20;;;;;;;4.70;1.70;;;15.60;99.90;;;;;;5085000;28;20190;-71
2021/05/17 04:36:46;;;;;;;9.90;1.83;;;15.80;99.90;;;;;;5081872;28;20186;-71
2021/05/17 04:39:13;;;;;;;10.80;2.13;;;16.00;99.90;;;;;;5083587;28;20186;-71
2021/05/17 04:41:39;;;;;;;5.83;1.60;;;16.10;99.90;;;;;;5084083;28;20193;-71
2021/05/17 04:44:06;;;;;;;10.60;2.00;;;16.20;99.90;;;;;;5085194;28;20185;-70
2021/05/17 04:46:32;;;;;;;5.70;1.70;;;16.30;99.90;;;;;;5082660;28;20232;-71
2021/05/17 04:48:58;;;;;;;4.60;1.60;;;16.50;99.90;;;;;;5078466;28;20194;-71
2021/05/17 04:51:25;;;;;;;5.63;1.37;;;16.60;99.90;;;;;;5094595;28;20189;-71
2021/05/17 04:53:52;;;;;;;4.23;1.43;;;16.70;99.90;;;;;;5084768;28;20236;-71
2021/05/17 04:56:21;;;;;;;5.60;1.70;;;16.80;99.90;;;;;;5080063;28;20194;-71
2021/05/17 04:58:47;;;;;;;7.40;1.90;;;16.90;99.90;;;;;;5083405;28;20865;-71
2021/05/17 05:01:13;;;;;;;6.07;1.83;;;16.90;99.90;;;;;;5085308;28;20611;-71
2021/05/17 05:03:40;;;;;;;5.70;2.20;;;17.00;99.90;;;;;;5084211;28;20273;-73
2021/05/17 05:06:06;;;;;;;5.70;1.40;;;17.00;99.90;;;;;;5063475;28;20212;-72
2021/05/17 05:08:32;;;;;;;6.20;1.57;;;17.00;99.90;;;;;;5080486;28;20187;-70
2021/05/17 05:10:59;;;;;;;3.83;1.47;;;17.10;99.90;;;;;;5067575;28;20179;-70
2021/05/17 05:13:25;;;;;;;11.83;1.83;;;17.30;99.90;;;;;;5083360;28;20224;-70
2021/05/17 05:15:54;;;;;;;8.87;2.00;;;17.30;99.90;;;;;;5083079;28;20226;-70
2021/05/17 05:18:21;;;;;;;8.87;1.70;;;17.50;99.90;;;;;;5084002;28;20218;-70
2021/05/17 05:20:48;;;;;;;6.57;1.57;;;17.50;99.90;;;;;;5059188;28;20188;-70
2021/05/17 05:23:18;;;;;;;4.97;1.57;;;17.40;99.90;;;;;;5082489;28;20227;-70
2021/05/17 05:33:40;;;;;;;7.67;1.87;;;17.80;99.90;;;;;;5084920;28;20190;-70
2021/05/17 05:36:07;;;;;;;5.93;1.60;;;17.80;99.90;;;;;;5083772;28;20194;-70
2021/05/17 05:38:33;;;;;;;4.07;1.43;;;17.80;99.90;;;;;;5085007;28;20200;-70
2021/05/17 05:40:59;;;;;;;7.87;1.70;;;18.00;99.90;;;;;;5077919;28;20194;-70
2021/05/17 05:43:26;;;;;;;3.80;1.47;;;18.10;99.90;;;;;;5084158;28;20254;-70
2021/05/17 05:45:52;;;;;;;5.90;1.67;;;18.10;99.90;;;;;;5083865;28;20222;-70
2021/05/17 05:48:19;;;;;;;5.03;1.40;;;18.10;99.90;;;;;;5083308;28;20737;-70
2021/05/17 05:50:46;;;;;;;7.93;1.60;;;18.20;99.90;;;;;;5079315;28;20198;-70
2021/05/17 05:53:16;;;;;;;6.03;1.60;;;18.20;99.90;;;;;;5075578;28;20302;-70
2021/05/17 05:55:46;;;;;;;5.23;1.40;;;18.20;99.90;;;;;;5081727;28;20224;-70
2021/05/17 05:58:15;;;;;;;6.23;1.53;;;18.30;99.90;;;;;;5082096;28;20186;-70
2021/05/17 06:00:42;;;;;;;6.17;1.60;;;18.40;99.90;;;;;;5083195;28;20214;-70
2021/05/17 06:03:09;;;;;;;9.10;1.60;;;18.60;99.90;;;;;;5084123;28;20194;-70
2021/05/17 06:05:35;;;;;;;9.63;2.00;;;18.70;99.90;;;;;;5082134;28;20251;-70
2021/05/17 06:08:02;;;;;;;7.63;1.60;;;18.80;99.90;;;;;;5074165;28;20644;-70
2021/05/17 06:10:29;;;;;;;4.67;1.50;;;18.80;99.90;;;;;;5083985;28;20331;-70
2021/05/17 06:12:58;;;;;;;7.83;2.10;;;18.90;99.90;;;;;;5081062;28;20226;-69
2021/05/17 06:15:25;;;;;;;6.93;2.07;;;19.10;99.90;;;;;;5066101;28;20191;-72
2021/05/17 06:17:52;;;;;;;5.20;1.60;;;19.30;99.90;;;;;;5063262;28;20202;-70
2021/05/17 06:20:21;;;;;;;10.27;1.80;;;19.20;99.90;;;;;;5078689;28;20189;-69
2021/05/17 06:22:50;;;;;;;7.63;1.57;;;19.30;99.90;;;;;;5077143;28;20213;-70
2021/05/17 06:25:18;;;;;;;7.63;1.57;;;19.50;99.90;;;;;;5081983;28;20195;-69
2021/05/17 06:27:44;;;;;;;8.43;1.67;;;19.60;99.90;;;;;;5080505;28;20661;-70
2021/05/17 06:30:14;;;;;;;5.57;1.70;;;19.70;99.90;;;;;;5084158;28;20190;-70
2021/05/17 06:32:42;;;;;;;7.43;1.50;;;19.70;99.90;;;;;;5086543;28;20218;-69
2021/05/17 06:35:16;;;;;;;7.50;2.20;;;19.80;99.90;;;;;;5087272;28;20825;-72
2021/05/17 06:37:42;;;;;;;7.73;1.50;;;20.00;99.90;;;;;;5082197;28;20186;-72
2021/05/17 06:40:09;;;;;;;12.47;1.80;;;20.00;99.90;;;;;;5083974;28;20182;-69
2021/05/17 06:42:36;;;;;;;5.87;1.50;;;20.00;99.90;;;;;;5096021;28;20199;-71
2021/05/17 06:45:04;;;;;;;5.37;1.60;;;20.10;99.90;;;;;;5066702;28;20186;-72
2021/05/17 06:47:35;;;;;;;7.30;2.10;;;20.10;99.90;;;;;;5083406;28;20194;-72
2021/05/17 06:50:03;;;;;;;7.40;2.17;;;20.20;99.90;;;;;;5079863;28;20590;-72
2021/05/17 06:52:30;;;;;;;7.93;1.90;;;20.40;99.90;;;;;;5094963;27;20299;-72
2021/05/17 06:55:01;;;;;;;8.03;1.83;;;20.50;99.90;;;;;;5082708;28;20197;-71
2021/05/17 06:57:42;;;;;;;10.60;2.07;;;20.60;99.90;;;;;;5082200;28;20187;-72
2021/05/17 07:00:12;;;;;;;6.97;1.80;;;20.60;99.90;;;;;;5085005;28;20651;-71
2021/05/17 07:02:44;;;;;;;7.80;2.13;;;20.80;99.90;;;;;;5065389;28;20198;-71
2021/05/17 07:05:13;;;;;;;6.57;2.03;;;20.90;99.90;;;;;;5082376;28;20201;-72
2021/05/17 07:12:53;;;;;;;14.83;2.70;;;21.00;99.90;;;;;;5079020;28;20242;-72
2021/05/17 07:15:20;;;;;;;8.77;2.30;;;21.20;99.90;;;;;;5083923;28;20194;-72
2021/05/17 07:17:46;;;;;;;19.27;2.83;;;21.20;99.90;;;;;;5082891;28;20692;-71
2021/05/17 07:20:23;;;;;;;10.67;2.30;;;21.20;99.90;;;;;;5065709;28;20281;-71
2021/05/17 07:25:34;;;;;;;11.90;2.90;;;21.50;99.90;;;;;;5079079;28;20618;-72
2021/05/17 07:28:01;;;;;;;7.87;2.33;;;21.40;99.90;;;;;;5065190;28;20198;-72
2021/05/17 07:30:28;;;;;;;15.43;2.60;;;21.50;99.90;;;;;;5068173;28;20548;-71
2021/05/17 07:32:54;;;;;;;6.50;2.20;;;21.50;99.90;;;;;;5088243;28;20210;-70
2021/05/17 07:35:21;;;;;;;15.13;2.53;;;21.50;99.90;;;;;;5085725;28;20257;-71
2021/05/17 07:37:47;;;;;;;12.83;2.70;;;21.60;99.90;;;;;;5066089;28;20179;-71
2021/05/17 07:40:14;;;;;;;13.53;2.90;;;21.70;99.90;;;;;;5063566;28;20194;-69
2021/05/17 07:42:40;;;;;;;12.33;2.27;;;21.70;99.90;;;;;;5086181;28;20216;-71
2021/05/17 07:45:08;;;;;;;12.27;2.90;;;21.80;99.90;;;;;;5085595;28;20642;-72
2021/05/17 07:47:34;;;;;;;12.60;2.30;;;21.80;99.90;;;;;;5082175;28;20819;-71
2021/05/17 07:50:01;;;;;;;9.83;2.40;;;22.00;99.90;;;;;;5086531;28;20182;-71
2021/05/17 07:52:27;;;;;;;13.37;2.63;;;22.10;99.90;;;;;;5066198;28;20297;-71
2021/05/17 07:54:54;;;;;;;13.93;3.20;;;22.10;99.90;;;;;;5074039;28;20224;-72
2021/05/17 07:57:20;;;;;;;13.67;2.40;;;22.20;99.90;;;;;;5065982;28;20193;-71
2021/05/17 07:59:48;;;;;;;8.67;2.50;;;22.20;99.90;;;;;;5085827;28;20246;-72
2021/05/17 08:02:20;;;;;;;7.07;2.07;;;22.30;99.90;;;;;;5069318;28;20194;-71
2021/05/17 08:04:50;;;;;;;9.53;2.60;;;22.40;99.90;;;;;;5066353;28;20182;-71
2021/05/17 08:07:21;;;;;;;10.47;2.53;;;22.60;99.90;;;;;;5082432;28;20212;-71
2021/05/17 08:09:48;;;;;;;9.83;2.20;;;22.70;99.90;;;;;;5081815;28;20201;-69
2021/05/17 08:12:15;;;;;;;10.77;2.43;;;22.70;99.90;;;;;;5083032;28;20214;-71
2021/05/17 08:14:42;;;;;;;11.30;2.77;;;22.70;99.90;;;;;;5066040;28;20236;-71
2021/05/17 08:17:08;;;;;;;11.80;2.50;;;22.80;99.90;;;;;;5063057;28;20194;-71
2021/05/17 08:19:36;;;;;;;13.17;2.27;;;23.00;99.90;;;;;;5082793;28;20260;-71
2021/05/17 08:22:04;;;;;;;11.10;2.37;;;22.80;99.90;;;;;;5098531;27;20213;-70
2021/05/17 08:24:31;;;;;;;9.63;2.37;;;22.70;99.90;;;;;;5076450;28;20204;-70
2021/05/17 08:26:59;;;;;;;12.43;1.97;;;22.70;99.90;;;;;;5072354;28;20288;-69
2021/05/17 08:29:31;;;;;;;11.17;2.30;;;22.90;99.90;;;;;;5064094;28;20194;-69
2021/05/17 08:32:00;;;;;;;10.20;2.13;;;23.00;99.90;;;;;;5079602;28;21219;-70
2021/05/17 08:34:27;;;;;;;10.37;1.97;;;23.30;99.90;;;;;;5081739;28;20190;-69
2021/05/17 08:37:00;;;;;;;6.87;2.07;;;23.40;99.90;;;;;;5081984;28;20192;-71
2021/05/17 08:39:30;;;;;;;11.50;2.70;;;23.30;99.90;;;;;;5083900;28;20182;-69
2021/05/17 08:42:04;;;;;;;8.83;2.50;;;23.50;99.90;;;;;;5063062;28;20241;-71
2021/05/17 08:44:34;;;;;;;5.10;1.87;;;23.50;99.90;;;;;;5081909;28;20192;-71
2021/05/17 08:47:01;;;;;;;9.50;2.17;;;23.60;99.90;;;;;;5087739;28;21150;-70
2021/05/17 08:49:28;;;;;;;7.63;1.83;;;23.50;99.90;;;;;;5093228;28;20194;-70
2021/05/17 08:51:54;;;;;;;9.93;2.10;;;23.50;99.90;;;;;;5095070;28;20292;-70
2021/05/17 08:54:21;;;;;;;12.60;2.43;;;23.70;99.90;;;;;;5082821;28;20268;-70
2021/05/17 08:56:48;;;;;;;7.60;2.00;;;23.70;99.90;;;;;;5074437;28;20198;-71
2021/05/17 08:59:18;;;;;;;10.47;2.50;;;23.80;99.90;;;;;;5081582;28;20273;-72
2021/05/17 09:01:44;;;;;;;11.30;2.07;;;24.00;99.90;;;;;;5076582;28;20260;-70
2021/05/17 09:04:14;;;;;;;10.10;2.47;;;24.10;99.90;;;;;;5063537;28;20217;-70
2021/05/17 09:06:56;;;;;;;8.07;1.90;;;24.30;99.90;;;;;;5083330;28;20221;-70
2021/05/17 09:09:35;;;;;;;15.63;2.73;;;24.30;99.90;;;;;;5082854;28;20634;-71
2021/05/17 09:12:10;;;;;;;11.17;2.30;;;24.40;99.90;;;;;;5082289;28;20737;-71
2021/05/17 09:14:38;;;;;;;10.07;2.37;;;24.50;99.90;;;;;;5097321;28;20192;-71
2021/05/17 09:17:07;;;;;;;8.17;1.83;;;24.70;99.90;;;;;;5077964;28;20202;-70
2021/05/17 09:19:37;;;;;;;9.55;2.22;;;24.80;99.90;;;;;;5083860;28;20217;-72
2021/05/17 09:22:18;;;;;;;9.03;2.10;;;24.80;99.90;;;;;;5096277;28;20237;-72
2021/05/17 09:24:54;;;;;;;12.93;2.10;;;24.90;99.90;;;;;;5080645;28;20202;-72
2021/05/17 09:27:31;;;;;;;10.80;2.20;;;24.80;99.90;;;;;;5075331;28;22270;-72
2021/05/17 09:30:05;;;;;;;10.27;2.08;;;24.90;99.90;;;;;;5099413;28;20239;-71
2021/05/17 09:32:36;;;;;;;10.75;2.40;;;24.80;99.90;;;;;;5081222;28;20205;-72
2021/05/17 09:35:15;;;;;;;6.75;1.90;;;25.00;99.90;;;;;;5081467;28;20713;-72
2021/05/17 09:38:00;;;;;;;9.00;1.90;;;25.20;99.90;;;;;;5075592;28;20205;-72
2021/05/17 09:40:32;;;;;;;7.72;2.28;;;25.50;99.90;;;;;;5079531;28;20272;-72
2021/05/17 09:43:11;;;;;;;11.65;2.38;;;25.60;99.90;;;;;;5076576;28;20946;-72
2021/05/17 09:45:41;;;;;;;8.77;1.90;;;25.60;99.90;;;;;;5063981;28;20202;-72
2021/05/17 09:48:17;;;;;;;12.38;2.00;;;25.40;99.90;;;;;;5078894;28;20178;-72
2021/05/17 09:51:03;;;;;;;8.52;2.63;;;25.50;99.90;;;;;;5079823;28;20780;-72
2021/05/17 09:53:47;;;;;;;8.50;2.17;;;25.40;99.90;;;;;;5081520;28;20579;-72
2021/05/17 09:56:23;;;;;;;8.15;2.60;;;25.60;99.90;;;;;;5097125;28;21206;-72
2021/05/17 09:59:00;;;;;;;10.88;2.50;;;25.80;99.90;;;;;;5072799;28;20234;-72
2021/05/17 10:01:29;;;;;;;10.82;2.00;;;25.80;99.90;;;;;;5081310;28;20189;-72
2021/05/17 10:04:07;;;;;;;8.20;2.20;;;25.40;99.90;;;;;;5081659;28;20250;-72
2021/05/17 10:06:33;;;;;;;11.88;1.90;;;25.40;99.90;;;;;;5084534;28;20276;-72
2021/05/17 10:09:00;;;;;;;7.13;2.30;;;25.50;99.90;;;;;;5083122;28;20189;-70
2021/05/17 10:11:28;;;;;;;7.28;2.10;;;25.60;99.90;;;;;;5068482;28;20189;-72
2021/05/17 10:13:54;;;;;;;8.30;2.03;;;25.80;99.90;;;;;;5080070;28;20197;-72
2021/05/17 10:16:23;;;;;;;9.27;2.30;;;26.00;99.90;;;;;;5062970;28;20717;-72
2021/05/17 10:18:50;;;;;;;8.18;1.90;;;25.90;99.90;;;;;;5079351;28;20182;-72
2021/05/17 10:21:21;;;;;;;6.88;1.77;;;26.00;99.90;;;;;;5068072;28;20285;-72
2021/05/17 10:23:47;;;;;;;7.05;2.00;;;26.00;99.90;;;;;;5085274;28;20186;-72
2021/05/17 10:26:22;;;;;;;9.27;1.95;;;26.00;99.90;;;;;;5080184;28;20191;-72
2021/05/17 10:28:57;;;;;;;22.33;3.10;;;26.20;99.90;;;;;;5077731;28;20277;-71
2021/05/17 10:31:25;;;;;;;5.97;1.95;;;26.20;99.90;;;;;;5078801;28;20227;-72
2021/05/17 10:34:06;;;;;;;14.90;2.60;;;26.20;99.90;;;;;;5083315;28;20179;-72
2021/05/17 10:37:00;;;;;;;9.15;2.25;;;26.10;99.90;;;;;;5080484;28;20272;-73
2021/05/17 10:39:41;;;;;;;7.30;1.70;;;26.00;99.90;;;;;;5079101;28;20684;-72
2021/05/17 10:42:25;;;;;;;12.45;1.77;;;25.90;99.90;;;;;;5061355;28;20221;-72
2021/05/17 10:48:21;;;;;;;8.55;1.90;;;25.80;99.90;;;;;;5084609;28;20281;-71
2021/05/17 10:50:51;;;;;;;12.65;2.42;;;25.80;99.90;;;;;;5063494;28;20234;-72
2021/05/17 10:53:58;;;;;;;10.00;2.10;;;25.90;99.90;;;;;;5065637;28;20880;-72
2021/05/17 10:57:05;;;;;;;7.28;1.73;;;25.70;99.90;;;;;;5076819;28;20179;-72
2021/05/17 11:02:32;;;;;;;14.50;2.38;;;25.70;99.90;;;;;;5073437;28;20183;-72
2021/05/17 11:05:11;;;;;;;9.32;1.88;;;25.70;99.90;;;;;;5074051;28;20191;-71
2021/05/17 11:07:56;;;;;;;9.75;2.22;;;25.70;99.90;;;;;;5076125;28;20211;-72
2021/05/17 11:10:59;;;;;;;13.40;2.25;;;25.70;99.90;;;;;;5063175;28;20189;-70
2021/05/17 11:13:32;;;;;;;7.28;2.15;;;25.60;99.90;;;;;;5079738;28;20209;-72
2021/05/17 11:16:06;;;;;;;10.02;2.30;;;25.60;99.90;;;;;;5064014;28;20197;-72
2021/05/17 11:18:51;;;;;;;14.43;2.47;;;25.60;99.90;;;;;;5063814;28;20266;-72
2021/05/17 11:21:30;;;;;;;10.20;2.10;;;25.60;99.90;;;;;;5085072;28;20251;-71
2021/05/17 11:24:07;;;;;;;9.38;2.13;;;25.60;99.90;;;;;;5081963;28;20285;-72
2021/05/17 11:26:55;;;;;;;10.00;2.20;;;25.50;99.90;;;;;;5076513;28;21033;-71
2021/05/17 11:29:36;;;;;;;9.23;2.20;;;25.50;99.90;;;;;;5059105;28;20178;-70
2021/05/17 11:32:14;;;;;;;9.75;2.55;;;25.40;99.90;;;;;;5086705;27;20872;-70
2021/05/17 11:35:06;;;;;;;10.32;2.40;;;25.40;99.90;;;;;;5079338;28;20693;-70
2021/05/17 11:37:34;;;;;;;10.82;1.95;;;25.40;99.90;;;;;;5081348;28;20190;-71
2021/05/17 11:40:28;;;;;;;10.02;2.22;;;25.50;99.90;;;;;;5098667;28;20280;-69
2021/05/17 11:42:59;;;;;;;8.95;2.38;;;25.60;99.90;;;;;;5063884;28;20191;-69
2021/05/17 11:45:26;;;;;;;8.70;2.00;;;25.50;99.90;;;;;;5066038;28;20191;-71
2021/05/17 11:47:53;;;;;;;8.38;1.95;;;25.40;99.90;;;;;;5061828;28;20190;-71
2021/05/17 11:50:22;;;;;;;12.85;2.92;;;25.40;99.90;;;;;;5074954;28;20276;-71
2021/05/17 11:52:48;;;;;;;11.38;1.98;;;25.50;99.90;;;;;;5080906;28;20230;-71
2021/05/17 11:55:14;;;;;;;9.23;2.00;;;25.40;99.90;;;;;;5085074;28;20263;-71
2021/05/17 11:57:42;;;;;;;8.48;2.40;;;25.30;99.90;;;;;;5077418;28;20272;-71
2021/05/17 12:00:12;;;;;;;9.25;2.28;;;25.40;99.90;;;;;;5061516;28;20268;-72
2021/05/17 12:02:51;;;;;;;12.15;2.20;;;25.30;99.90;;;;;;5049939;28;20199;-71
2021/05/17 12:05:18;;;;;;;17.45;3.00;;;25.50;99.90;;;;;;5079683;28;20201;-71
2021/05/17 12:07:55;;;;;;;7.65;1.98;;;25.30;99.90;;;;;;5075735;28;20221;-72
2021/05/17 12:10:34;;;;;;;8.75;2.53;;;25.20;99.90;;;;;;5081413;28;20194;-72
2021/05/17 12:13:14;;;;;;;12.43;2.60;;;25.50;99.90;;;;;;5083159;28;20531;-72
2021/05/17 12:15:41;;;;;;;11.00;2.65;;;25.70;99.90;;;;;;5074569;28;20193;-71
2021/05/17 12:18:11;;;;;;;13.65;2.10;;;25.50;99.90;;;;;;5074338;28;20276;-71
2021/05/17 12:20:38;;;;;;;10.15;2.33;;;25.30;99.90;;;;;;5075657;28;20242;-71
2021/05/17 12:23:05;;;;;;;8.60;2.05;;;25.30;99.90;;;;;;5066830;28;20198;-72
2021/05/17 12:25:33;;;;;;;11.23;2.50;;;25.20;99.90;;;;;;5077296;28;20211;-71
2021/05/17 12:28:02;;;;;;;9.17;2.33;;;24.90;99.90;;;;;;5078994;28;20733;-71
2021/05/17 12:30:29;;;;;;;12.33;2.17;;;24.90;99.90;;;;;;5062325;28;20194;-71
2021/05/17 12:33:01;;;;;;;10.40;2.57;;;24.60;99.90;;;;;;5068857;28;20933;-71
2021/05/17 12:35:32;;;;;;;7.73;2.03;;;24.60;99.90;;;;;;5074913;28;20217;-72
2021/05/17 12:38:04;;;;;;;6.18;1.80;;;24.70;99.90;;;;;;5093225;28;20189;-72
2021/05/17 12:40:40;;;;;;;9.10;2.27;;;24.80;99.90;;;;;;5084073;28;20220;-72
2021/05/17 12:43:21;;;;;;;9.77;2.30;;;24.90;99.90;;;;;;5077065;28;20186;-72
2021/05/17 12:45:47;;;;;;;8.07;1.92;;;25.00;99.90;;;;;;5075515;28;20185;-72
2021/05/17 12:48:32;;;;;;;8.80;2.28;;;25.10;99.90;;;;;;5060856;28;20709;-70
2021/05/17 12:51:27;;;;;;;12.37;2.20;;;24.80;99.90;;;;;;5063156;28;20244;-71
2021/05/17 12:54:16;;;;;;;6.07;1.95;;;24.60;99.90;;;;;;5079190;28;20195;-71
2021/05/17 12:56:43;;;;;;;11.47;2.73;;;24.40;99.90;;;;;;5080769;28;20197;-72
2021/05/17 12:59:14;;;;;;;9.83;1.80;;;24.60;99.90;;;;;;5065469;28;20296;-71
2021/05/17 13:01:42;;;;;;;6.90;1.88;;;24.60;99.90;;;;;;5062700;28;20190;-71
2021/05/17 13:04:09;;;;;;;6.97;1.90;;;24.30;99.90;;;;;;5072792;28;20229;-71
2021/05/17 13:06:37;;;;;;;6.97;1.83;;;24.30;99.90;;;;;;5079395;28;20206;-72
2021/05/17 13:09:10;;;;;;;10.75;2.25;;;24.50;99.90;;;;;;5078906;28;20202;-72
2021/05/17 13:11:43;;;;;;;8.32;1.65;;;24.90;99.90;;;;;;5084686;28;20756;-72
2021/05/17 13:14:23;;;;;;;9.88;1.70;;;24.80;99.90;;;;;;5078604;28;20197;-71
2021/05/17 13:16:54;;;;;;;6.25;2.05;;;25.00;99.90;;;;;;5079642;28;20732;-72
2021/05/17 13:30:59;;;;;;;7.13;1.90;;;24.80;99.90;;;;;;5077024;28;20209;-71
2021/05/17 13:33:31;;;;;;;7.03;2.10;;;24.90;99.90;;;;;;5082308;28;20301;-71
2021/05/17 13:36:25;;;;;;;10.23;2.03;;;25.10;99.90;;;;;;5081563;28;20197;-71
2021/05/17 13:38:54;;;;;;;10.32;2.13;;;25.50;99.90;;;;;;5067145;28;20218;-71
2021/05/17 13:41:26;;;;;;;4.32;1.67;;;25.60;99.90;;;;;;5081250;28;20190;-71